Time;durP1;ratioP1;P1;durP2;ratioP2;P2;SDS_P1;SDS_P2;PMS_P1;PMS_P2;Temp;Humidity;BMP_temperature;BMP_pressure;BME280_temperature;BME280_humidity;BME280_pressure;Samples;Min_cycle;Max_cycle;Signal;HPM_P1;HPM_P2
2021/12/13 00:02:24;;;;;;;2.28;1.27;;;;;;;5.11;92.70;99882.78;4956753;29;20267;-72
2021/12/13 00:05:03;;;;;;;0.68;0.68;;;;;;;5.13;92.79;99885.41;4956296;29;20027;-72
2021/12/13 00:07:33;;;;;;;1.23;1.13;;;;;;;5.07;92.91;99887.81;4956152;29;20034;-72
2021/12/13 00:10:06;;;;;;;1.73;1.60;;;;;;;5.12;92.59;99881.94;4956279;28;20047;-72
2021/12/13 00:12:37;;;;;;;1.08;1.08;;;;;;;5.15;92.01;99883.72;4956285;29;20023;-72
2021/12/13 00:15:12;;;;;;;1.67;1.58;;;;;;;5.24;92.27;99890.75;4955930;28;20118;-72
2021/12/13 00:17:47;;;;;;;0.98;0.98;;;;;;;5.34;91.70;99882.41;4956048;29;20031;-72
2021/12/13 00:20:16;;;;;;;1.63;1.52;;;;;;;5.45;91.03;99883.47;4956181;29;20377;-72
2021/12/13 00:22:46;;;;;;;1.02;1.02;;;;;;;5.27;92.43;99889.13;4956024;28;20110;-72
2021/12/13 00:25:17;;;;;;;1.15;1.15;;;;;;;5.29;92.95;99890.00;4955974;29;20036;-72
2021/12/13 00:27:49;;;;;;;1.38;1.27;;;;;;;5.18;93.85;99893.19;4955912;29;20090;-72
2021/12/13 00:30:25;;;;;;;1.55;1.45;;;;;;;5.09;94.50;99896.44;4938820;29;20066;-72
2021/12/13 00:33:06;;;;;;;1.92;1.20;;;;;;;4.96;96.63;99890.16;4955981;29;20503;-72
2021/12/13 00:35:50;;;;;;;1.35;1.27;;;;;;;4.96;97.34;99899.56;4955595;29;20031;-72
2021/12/13 00:38:20;;;;;;;1.88;1.77;;;;;;;5.09;97.89;99892.16;4955646;28;20035;-72
2021/12/13 00:40:54;;;;;;;1.05;1.05;;;;;;;5.12;97.89;99897.34;4955794;29;20088;-72
2021/12/13 00:43:25;;;;;;;2.00;1.70;;;;;;;5.23;97.58;99887.31;4955667;29;20039;-72
2021/12/13 00:45:55;;;;;;;1.23;1.23;;;;;;;5.30;98.28;99885.75;4955403;29;20031;-72
2021/12/13 00:48:23;;;;;;;1.10;0.80;;;;;;;5.19;97.98;99888.09;4955770;29;20034;-72
2021/12/13 00:51:16;;;;;;;1.00;1.00;;;;;;;5.14;98.63;99884.56;4955479;29;20039;-72
2021/12/13 00:53:46;;;;;;;1.48;1.35;;;;;;;5.18;98.64;99883.78;4955591;29;20026;-72
2021/12/13 00:56:49;;;;;;;1.38;1.27;;;;;;;5.09;99.01;99891.28;4955181;29;20070;-72
2021/12/13 00:59:25;;;;;;;2.17;1.98;;;;;;;5.04;100.00;99892.91;4955587;29;20174;-72
2021/12/13 05:17:15;;;;;;;6.75;2.13;;;;;;;4.37;100.00;99954.63;5209256;23;20142;-72
2021/12/13 05:19:46;;;;;;;2.13;1.65;;;;;;;4.28;100.00;99954.38;4955242;28;20047;-72
2021/12/13 05:22:13;;;;;;;4.10;2.80;;;;;;;4.27;100.00;99957.78;4954906;29;20102;-72
2021/12/13 05:24:58;;;;;;;1.40;1.40;;;;;;;4.28;100.00;99954.38;4955113;29;20535;-72
2021/12/13 05:27:39;;;;;;;3.10;1.77;;;;;;;4.26;100.00;99958.63;4954763;29;20027;-72
2021/12/13 05:30:23;;;;;;;1.60;1.55;;;;;;;4.26;100.00;99958.63;4955578;29;20045;-69
2021/12/13 05:32:57;;;;;;;2.53;2.38;;;;;;;4.24;100.00;99957.69;4954825;28;20038;-69
2021/12/13 05:35:33;;;;;;;2.38;1.92;;;;;;;4.26;100.00;99955.19;4954914;29;20432;-69
2021/12/13 05:38:05;;;;;;;3.83;3.05;;;;;;;4.21;100.00;99957.63;4957782;28;20040;-69
2021/12/13 05:40:36;;;;;;;2.85;1.92;;;;;;;4.16;100.00;99963.44;4973439;28;20027;-69
2021/12/13 05:43:31;;;;;;;12.32;5.35;;;;;;;4.19;100.00;99969.53;4973873;28;20031;-69
2021/12/13 05:46:06;;;;;;;2.58;2.38;;;;;;;4.22;100.00;99974.75;4973146;28;20117;-69
2021/12/13 05:48:34;;;;;;;2.13;1.95;;;;;;;4.25;100.00;99977.38;4974003;28;20023;-69
2021/12/13 05:51:02;;;;;;;3.90;2.78;;;;;;;4.24;100.00;99977.34;4973950;28;20022;-69
2021/12/13 05:53:31;;;;;;;2.40;2.00;;;;;;;4.23;100.00;99979.03;4973577;28;20109;-69
2021/12/13 05:56:03;;;;;;;2.67;2.40;;;;;;;4.27;100.00;99983.44;4973836;28;20035;-69
2021/12/13 05:58:54;;;;;;;2.33;2.13;;;;;;;4.37;100.00;99980.28;4973605;28;20074;-69
2021/12/13 06:01:41;;;;;;;2.45;2.28;;;;;;;4.30;100.00;99980.97;4973808;28;20034;-69
2021/12/13 06:04:06;;;;;;;4.72;3.17;;;;;;;4.28;100.00;99984.28;4973245;28;20060;-69
2021/12/13 06:06:33;;;;;;;2.45;2.25;;;;;;;4.28;100.00;99980.03;4968054;28;20113;-69
2021/12/13 06:08:59;;;;;;;3.55;2.53;;;;;;;4.30;100.00;99974.94;4965457;28;20022;-69
2021/12/13 06:11:33;;;;;;;1.58;1.48;;;;;;;4.29;100.00;99976.63;4973553;28;20547;-69
2021/12/13 06:14:14;;;;;;;2.53;2.33;;;;;;;4.31;100.00;99975.00;4973382;28;20031;-69
2021/12/13 06:16:43;;;;;;;2.47;2.28;;;;;;;4.31;100.00;99984.38;4973295;28;20030;-69
2021/12/13 06:19:25;;;;;;;1.20;1.10;;;;;;;4.28;100.00;99977.47;4973353;28;20101;-69
2021/12/13 06:22:11;;;;;;;1.70;1.50;;;;;;;4.31;100.00;99980.13;4973512;28;20031;-69
2021/12/13 06:24:41;;;;;;;1.33;1.33;;;;;;;4.34;100.00;99980.19;4973215;28;20113;-69
2021/12/13 06:27:12;;;;;;;2.92;2.55;;;;;;;4.36;100.00;99980.25;4973340;28;20122;-69
2021/12/13 06:30:30;;;;;;;1.60;1.50;;;;;;;4.43;100.00;99981.25;4973415;28;20366;-69
2021/12/13 06:32:58;;;;;;;3.25;2.80;;;;;;;4.27;100.00;99972.31;4952304;28;20125;-68
2021/12/13 06:35:44;;;;;;;2.45;2.35;;;;;;;4.31;100.00;99975.00;4973184;28;20031;-68
2021/12/13 06:38:18;;;;;;;5.38;3.10;;;;;;;4.31;100.00;99979.25;4958433;28;20380;-69
2021/12/13 06:40:49;;;;;;;2.35;2.25;;;;;;;4.31;100.00;99980.13;4934701;29;20548;-69
2021/12/13 06:43:35;;;;;;;2.63;2.40;;;;;;;4.34;100.00;99977.63;4934647;29;20043;-69
2021/12/13 06:46:05;;;;;;;2.92;2.67;;;;;;;4.43;100.00;99978.69;4934519;29;20107;-69
2021/12/13 06:48:40;;;;;;;3.22;2.50;;;;;;;4.50;100.00;99981.47;4934820;29;20031;-69
2021/12/13 06:51:08;;;;;;;3.15;2.85;;;;;;;4.43;100.00;99984.69;4934566;29;20067;-69
2021/12/13 06:53:34;;;;;;;3.60;2.30;;;;;;;4.45;100.00;99984.72;4934568;29;20489;-69
2021/12/13 06:56:26;;;;;;;4.68;4.28;;;;;;;4.50;100.00;99996.00;4934271;29;20035;-69
2021/12/13 06:58:55;;;;;;;3.60;2.17;;;;;;;4.56;100.00;99991.03;4934670;29;20086;-69
2021/12/13 07:01:22;;;;;;;3.03;1.75;;;;;;;4.54;100.00;99992.66;4934597;29;20103;-69
2021/12/13 07:03:54;;;;;;;3.67;1.85;;;;;;;4.55;100.00;100002.13;4934672;29;20038;-69
2021/12/13 07:06:21;;;;;;;3.03;2.83;;;;;;;4.59;100.00;100006.47;4941874;28;20508;-69
2021/12/13 07:08:59;;;;;;;1.65;1.55;;;;;;;4.54;100.00;100000.38;4964838;28;20488;-69
2021/12/13 07:11:38;;;;;;;2.38;2.08;;;;;;;4.48;100.00;100002.78;4972859;28;20154;-69
2021/12/13 07:14:06;;;;;;;2.65;2.00;;;;;;;4.38;100.00;100001.66;4972928;28;20038;-69
2021/12/13 07:16:38;;;;;;;2.53;2.33;;;;;;;4.37;100.00;100005.94;4972506;28;20117;-68
2021/12/13 07:19:18;;;;;;;2.33;2.13;;;;;;;4.41;100.00;100001.75;4972888;28;20023;-69
2021/12/13 07:22:04;;;;;;;;;;;;;;;4.44;100.00;100006.09;4973262;28;20026;-69
2021/12/13 07:24:42;;;;;;;2.17;1.98;;;;;;;4.49;100.00;100009.63;4972393;28;19909;-69
2021/12/13 07:27:11;;;;;;;5.63;2.50;;;;;;;4.52;100.00;100009.72;4972432;28;20023;-69
2021/12/13 07:29:44;;;;;;;2.40;2.20;;;;;;;4.51;100.00;100002.88;4972785;28;20054;-68
2021/12/13 07:32:09;;;;;;;4.38;3.08;;;;;;;4.51;100.00;100008.00;4975388;28;20084;-69
2021/12/13 07:34:58;;;;;;;2.40;2.20;;;;;;;4.52;100.00;100009.72;4976379;28;20035;-69
2021/12/13 07:37:42;;;;;;;2.67;1.88;;;;;;;4.49;100.00;100009.63;4958233;28;20043;-68
2021/12/13 07:40:14;;;;;;;4.70;3.30;;;;;;;4.48;100.00;100013.03;4972587;28;20023;-68
2021/12/13 07:42:59;;;;;;;8.52;2.58;;;;;;;4.45;100.00;100007.81;4976452;28;20580;-69
2021/12/13 07:45:48;;;;;;;2.28;2.03;;;;;;;4.45;100.00;100012.94;4976547;28;20062;-69
2021/12/13 07:48:18;;;;;;;3.45;2.70;;;;;;;4.50;100.00;100006.28;4976003;28;20054;-69
2021/12/13 07:50:54;;;;;;;1.70;1.35;;;;;;;4.46;100.00;100012.16;4976149;28;20396;-69
2021/12/13 07:53:20;;;;;;;2.05;1.90;;;;;;;4.52;100.00;100004.59;4976119;28;20023;-69
2021/12/13 07:55:49;;;;;;;3.30;3.00;;;;;;;4.58;100.00;100010.75;4975731;28;20122;-69
2021/12/13 07:58:31;;;;;;;4.63;2.53;;;;;;;4.64;100.00;100008.38;4975767;28;20033;-68
2021/12/13 08:01:07;;;;;;;1.90;1.67;;;;;;;4.66;100.00;100016.09;4958640;28;20027;-69
2021/12/13 08:03:33;;;;;;;1.83;1.73;;;;;;;4.76;100.00;100024.91;4975750;28;20033;-69
2021/12/13 08:06:07;;;;;;;2.75;2.45;;;;;;;4.81;100.00;100029.31;4971815;28;20023;-69
2021/12/13 08:08:34;;;;;;;6.80;2.47;;;;;;;4.78;100.00;100023.22;4967275;28;20089;-69
2021/12/13 08:11:00;;;;;;;1.83;1.73;;;;;;;4.90;100.00;100026.13;4975555;28;20023;-69
2021/12/13 08:13:30;;;;;;;3.92;2.28;;;;;;;4.90;100.00;100024.41;4975613;28;20106;-69
2021/12/13 08:15:57;;;;;;;3.00;1.77;;;;;;;4.83;100.00;100026.78;4975322;28;20043;-69
2021/12/13 08:18:30;;;;;;;3.22;2.95;;;;;;;4.85;100.00;100027.69;4975520;28;20031;-69
2021/12/13 08:21:00;;;;;;;3.03;2.15;;;;;;;4.85;100.00;100026.00;4975504;28;20035;-69
2021/12/13 08:23:47;;;;;;;3.22;2.95;;;;;;;4.93;100.00;100028.75;4975277;28;20541;-69
2021/12/13 08:26:25;;;;;;;2.55;2.42;;;;;;;4.93;100.00;100021.03;4975164;28;20035;-69
2021/12/13 08:28:53;;;;;;;2.13;1.92;;;;;;;5.06;100.00;100024.78;4975532;28;20400;-69
2021/12/13 08:31:29;;;;;;;5.13;2.60;;;;;;;5.05;100.00;100028.19;4975368;28;20034;-69
2021/12/13 08:34:02;;;;;;;3.00;2.70;;;;;;;5.19;100.00;100016.53;4975117;28;20034;-69
2021/12/13 08:36:32;;;;;;;1.52;1.42;;;;;;;5.21;100.00;100021.72;4969603;28;20027;-69
2021/12/13 08:39:00;;;;;;;1.58;1.48;;;;;;;5.15;100.00;100025.88;4967058;28;20472;-69
2021/12/13 08:41:28;;;;;;;3.45;2.45;;;;;;;5.17;100.00;100028.47;4975062;28;20164;-69
2021/12/13 08:44:09;;;;;;;3.22;1.50;;;;;;;5.13;100.00;100026.69;4973712;28;20530;-69
2021/12/13 08:46:46;;;;;;;3.53;2.17;;;;;;;5.22;100.00;100033.72;4974791;28;20035;-69
2021/12/13 08:49:35;;;;;;;4.68;3.20;;;;;;;5.37;100.00;100037.53;4975081;28;20027;-69
2021/12/13 08:52:16;;;;;;;3.67;2.00;;;;;;;5.39;100.00;100035.84;4963204;28;20038;-69
2021/12/13 08:55:09;;;;;;;3.63;2.72;;;;;;;5.65;100.00;100027.84;4974682;28;20468;-69
2021/12/13 08:57:52;;;;;;;2.38;1.42;;;;;;;5.45;100.00;100040.25;4974733;28;20038;-69
2021/12/13 09:00:32;;;;;;;8.15;1.42;;;;;;;5.47;100.00;100037.75;4974833;28;20014;-69
2021/12/13 09:03:10;;;;;;;3.25;1.98;;;;;;;5.48;100.00;100039.47;4974733;28;20571;-69
2021/12/13 09:05:39;;;;;;;2.67;2.47;;;;;;;5.44;100.00;100035.97;4973915;28;20023;-69
2021/12/13 09:08:12;;;;;;;2.58;2.38;;;;;;;5.38;100.00;100044.41;4963186;28;20027;-69
2021/12/13 09:11:05;;;;;;;2.55;2.35;;;;;;;5.39;100.00;100040.13;4936115;29;20389;-68
2021/12/13 09:13:49;;;;;;;3.30;2.70;;;;;;;5.47;100.00;100053.16;4900684;29;20115;-69
2021/12/13 09:16:20;;;;;;;1.27;1.25;;;;;;;5.45;100.00;100044.53;4935795;29;20043;-69
2021/12/13 09:19:05;;;;;;;2.47;2.05;;;;;;;5.43;100.00;100052.22;4936025;29;20031;-69
2021/12/13 09:21:31;;;;;;;2.75;2.55;;;;;;;5.70;100.00;100051.09;4936037;29;20042;-69
2021/12/13 09:23:56;;;;;;;1.50;1.40;;;;;;;5.81;100.00;100063.38;4935884;29;20028;-69
2021/12/13 09:26:25;;;;;;;2.15;1.67;;;;;;;5.80;100.00;100060.75;4935572;29;20031;-70
2021/12/13 09:29:01;;;;;;;1.33;1.27;;;;;;;5.75;100.00;100060.63;4935842;29;20038;-68
2021/12/13 09:31:37;;;;;;;2.47;2.28;;;;;;;6.01;100.00;100057.81;4935773;29;20524;-68
2021/12/13 09:34:08;;;;;;;2.95;1.48;;;;;;;5.98;100.00;100057.75;4935730;29;20059;-69
2021/12/13 09:36:37;;;;;;;2.35;1.98;;;;;;;5.87;100.00;100055.78;4946726;28;20074;-68
2021/12/13 09:39:06;;;;;;;3.80;2.33;;;;;;;5.92;100.00;100054.19;4966153;28;20034;-68
2021/12/13 09:41:48;;;;;;;1.70;1.60;;;;;;;6.00;100.00;100053.50;4974021;28;20508;-68
2021/12/13 09:44:31;;;;;;;10.60;1.92;;;;;;;6.05;100.00;100055.34;4974102;28;20023;-68
2021/12/13 09:46:56;;;;;;;2.28;2.08;;;;;;;6.31;100.00;100047.28;4973848;28;20023;-68
2021/12/13 09:49:22;;;;;;;2.83;2.30;;;;;;;6.32;100.00;100044.72;4961763;28;20035;-68
2021/12/13 09:51:56;;;;;;;1.27;1.20;;;;;;;6.13;100.00;100047.75;4937437;29;20110;-68
2021/12/13 09:54:26;;;;;;;1.00;1.00;;;;;;;6.38;100.00;100044.84;4954087;28;20038;-68
2021/12/13 09:56:52;;;;;;;2.22;1.88;;;;;;;6.30;100.00;100046.41;4954390;29;20070;-68
2021/12/13 09:59:36;;;;;;;2.22;2.13;;;;;;;6.58;100.00;100046.94;4954449;29;20085;-68
2021/12/13 10:02:05;;;;;;;2.45;2.28;;;;;;;6.60;100.00;100040.09;4954480;29;20031;-68
2021/12/13 10:04:35;;;;;;;3.40;2.30;;;;;;;6.72;100.00;100035.19;4953635;29;20027;-68
2021/12/13 10:07:10;;;;;;;2.75;2.55;;;;;;;6.85;100.00;100037.09;4953999;28;20090;-68
2021/12/13 10:09:42;;;;;;;2.58;1.35;;;;;;;6.81;100.00;100030.16;4957767;28;20035;-68
2021/12/13 10:12:15;;;;;;;3.10;1.67;;;;;;;6.92;100.00;100028.66;4973711;28;20022;-68
2021/12/13 10:14:47;;;;;;;2.97;1.75;;;;;;;6.55;100.00;100031.41;4973478;28;20027;-68
2021/12/13 10:17:16;;;;;;;3.20;2.25;;;;;;;6.53;100.00;100033.13;4973230;28;20039;-68
2021/12/13 10:19:46;;;;;;;2.50;2.20;;;;;;;6.56;100.00;100022.84;4973413;28;20085;-68
2021/12/13 10:22:13;;;;;;;;;;;;;;;6.49;100.00;100023.59;4973822;28;20399;-68
2021/12/13 10:24:45;;;;;;;1.70;1.58;;;;;;;6.59;100.00;100025.50;4973354;28;19910;-68
2021/12/13 10:27:14;;;;;;;2.75;2.15;;;;;;;6.92;100.00;100013.19;4973189;28;20492;-68
2021/12/13 10:29:45;;;;;;;2.38;2.13;;;;;;;6.82;100.00;100010.44;4973308;28;20022;-69
2021/12/13 10:32:17;;;;;;;3.72;2.30;;;;;;;7.11;100.00;100010.94;4973413;28;20369;-68
2021/12/13 10:34:50;;;;;;;2.42;1.42;;;;;;;7.30;100.00;100007.78;4969623;28;20030;-68
2021/12/13 10:37:23;;;;;;;6.53;2.35;;;;;;;7.34;100.00;100006.97;4956841;28;20105;-68
2021/12/13 10:39:56;;;;;;;1.38;1.30;;;;;;;7.57;100.00;99998.69;4959997;28;20113;-68
2021/12/13 10:42:26;;;;;;;1.45;1.35;;;;;;;7.97;100.00;100003.53;4954070;29;20059;-68
2021/12/13 10:44:52;;;;;;;4.15;2.20;;;;;;;8.23;98.85;100002.97;4953898;29;20362;-68
2021/12/13 10:47:30;;;;;;;4.88;2.90;;;;;;;8.52;95.87;100005.03;4953687;29;20034;-68
2021/12/13 10:49:56;;;;;;;4.07;2.70;;;;;;;8.39;97.09;100002.31;4953840;29;20070;-68
2021/12/13 10:52:48;;;;;;;5.18;1.20;;;;;;;8.50;96.14;100008.44;4953912;29;20035;-68
2021/12/13 10:55:18;;;;;;;1.15;1.15;;;;;;;8.55;95.97;100005.91;4953724;29;20023;-68
2021/12/13 10:57:49;;;;;;;1.08;1.08;;;;;;;8.65;95.23;100001.69;4953686;29;20353;-68
2021/12/13 11:00:21;;;;;;;2.65;1.80;;;;;;;8.55;95.12;100005.06;4953774;29;20050;-68
2021/12/13 11:02:53;;;;;;;1.25;1.15;;;;;;;8.67;95.18;100005.19;4953833;29;20027;-68
2021/12/13 11:05:20;;;;;;;1.10;1.10;;;;;;;8.67;94.94;100005.19;4961418;28;20057;-68
2021/12/13 11:07:48;;;;;;;1.63;1.52;;;;;;;8.75;94.55;99993.19;4961882;28;20054;-68
2021/12/13 11:10:21;;;;;;;1.73;1.45;;;;;;;9.04;93.86;99990.84;4960274;28;20109;-68
2021/12/13 11:12:53;;;;;;;2.97;2.13;;;;;;;8.98;93.24;99996.84;4957550;29;20038;-68
2021/12/13 11:15:29;;;;;;;1.23;1.20;;;;;;;9.04;92.17;99992.56;4957365;28;20081;-69
2021/12/13 11:17:55;;;;;;;1.90;1.67;;;;;;;8.98;93.47;99986.50;4957206;29;20034;-68
2021/12/13 11:20:28;;;;;;;1.42;1.33;;;;;;;8.86;92.56;99981.25;4957393;29;20026;-69
2021/12/13 11:22:55;;;;;;;1.65;1.33;;;;;;;8.28;95.22;99985.81;4957276;29;20118;-68
2021/12/13 11:25:25;;;;;;;1.73;1.63;;;;;;;8.06;97.79;99989.00;4957291;29;20057;-68
2021/12/13 11:27:51;;;;;;;2.13;2.03;;;;;;;8.24;97.92;99978.88;4957153;29;20031;-68
2021/12/13 11:30:22;;;;;;;4.07;2.05;;;;;;;7.94;98.68;99980.28;4957603;29;20027;-69
2021/12/13 11:32:56;;;;;;;2.08;1.90;;;;;;;7.87;100.00;99983.63;4957143;29;20027;-68
2021/12/13 11:36:02;;;;;;;2.08;1.88;;;;;;;7.72;100.00;99978.25;4964805;28;20043;-69
2021/12/13 11:39:03;;;;;;;2.03;1.83;;;;;;;7.74;100.00;99971.44;4963826;28;20480;-68
2021/12/13 11:41:29;;;;;;;1.85;1.75;;;;;;;7.61;100.00;99974.69;4956947;29;20381;-68
2021/12/13 11:44:19;;;;;;;1.92;1.50;;;;;;;7.64;100.00;99972.13;4957042;29;20027;-68
2021/12/13 11:47:11;;;;;;;1.10;1.10;;;;;;;7.65;100.00;99968.72;4956709;29;20396;-69
2021/12/13 11:49:53;;;;;;;1.58;1.50;;;;;;;7.66;100.00;99973.03;4956840;29;20058;-68
2021/12/13 11:52:56;;;;;;;1.88;1.70;;;;;;;7.47;100.00;99972.78;4957004;29;20033;-68
2021/12/13 11:55:59;;;;;;;1.35;1.35;;;;;;;7.43;100.00;99971.00;4956741;29;20031;-68
2021/12/13 11:59:00;;;;;;;1.20;1.20;;;;;;;7.35;100.00;99972.63;4956686;29;20027;-68
2021/12/13 12:01:47;;;;;;;3.20;2.17;;;;;;;7.58;100.00;99969.47;4956736;29;20038;-68
2021/12/13 12:04:50;;;;;;;1.27;1.17;;;;;;;7.52;100.00;99966.81;4956732;28;20024;-68
2021/12/13 12:07:45;;;;;;;0.98;0.98;;;;;;;7.67;100.00;99954.13;4959414;28;20492;-68
2021/12/13 12:10:25;;;;;;;2.15;1.95;;;;;;;7.50;100.00;99968.53;4959841;28;20031;-68
2021/12/13 12:12:58;;;;;;;3.95;1.38;;;;;;;7.60;100.00;99957.50;4956483;29;20031;-68
2021/12/13 12:15:25;;;;;;;4.82;2.08;;;;;;;7.51;100.00;99963.38;4956184;29;20023;-68
2021/12/13 12:17:54;;;;;;;1.05;1.05;;;;;;;7.64;100.00;99951.50;4955922;28;20019;-68
2021/12/13 12:20:28;;;;;;;5.22;2.75;;;;;;;7.90;100.00;99947.53;4956299;29;20110;-68
2021/12/13 12:22:56;;;;;;;1.38;1.27;;;;;;;8.04;100.00;99946.84;4956218;29;20038;-69
2021/12/13 12:25:26;;;;;;;1.25;1.15;;;;;;;8.04;100.00;99944.25;4956148;29;20042;-68
2021/12/13 12:28:04;;;;;;;3.38;1.92;;;;;;;7.89;100.00;99956.13;4956062;29;20085;-68
2021/12/13 12:30:35;;;;;;;1.02;1.02;;;;;;;7.98;100.00;99953.66;4956235;29;20035;-68
2021/12/13 12:33:07;;;;;;;1.73;1.63;;;;;;;8.07;100.00;99958.03;4956152;29;20023;-68
2021/12/13 12:35:47;;;;;;;1.75;0.82;;;;;;;7.96;99.32;99957.91;4963570;28;20023;-69
2021/12/13 12:38:15;;;;;;;1.90;1.75;;;;;;;8.06;99.39;99953.72;4963766;28;20065;-68
2021/12/13 12:41:37;;;;;;;1.55;1.45;;;;;;;8.01;99.66;99954.53;4955928;29;20038;-68
2021/12/13 12:44:04;;;;;;;3.95;2.65;;;;;;;8.02;99.18;99946.78;4955939;29;20031;-68
2021/12/13 12:46:31;;;;;;;1.13;1.13;;;;;;;7.85;99.86;99950.91;4955622;29;20037;-68
2021/12/13 12:48:58;;;;;;;1.90;1.80;;;;;;;7.96;99.85;99942.44;4955920;29;20542;-68
2021/12/13 12:51:27;;;;;;;1.73;1.52;;;;;;;8.03;98.81;99939.94;4955732;29;20027;-68
2021/12/13 12:54:04;;;;;;;1.85;1.08;;;;;;;8.05;98.74;99935.66;4955663;29;20019;-68
2021/12/13 12:56:35;;;;;;;1.45;1.35;;;;;;;8.15;98.19;99938.34;4955432;29;20054;-68
2021/12/13 12:59:05;;;;;;;0.70;0.70;;;;;;;8.04;98.22;99933.94;4955639;29;20035;-68
2021/12/13 13:01:58;;;;;;;;;;;;;;;7.97;99.32;99933.84;4955893;29;20050;-68
2021/12/13 13:04:29;;;;;;;2.72;1.83;;;;;;;8.27;99.54;99935.03;4949518;28;19910;-68
2021/12/13 13:07:13;;;;;;;1.52;1.42;;;;;;;8.50;96.24;99923.22;4960357;28;20059;-68
2021/12/13 13:09:49;;;;;;;0.80;0.80;;;;;;;8.47;95.93;99920.63;4959660;28;20023;-68
2021/12/13 13:12:30;;;;;;;1.48;1.38;;;;;;;8.39;95.64;99926.56;4974683;28;20082;-68
2021/12/13 13:14:55;;;;;;;2.55;1.35;;;;;;;8.43;97.41;99911.13;4974557;28;20023;-69
2021/12/13 13:17:28;;;;;;;1.05;1.05;;;;;;;8.42;96.59;99917.13;4974193;28;20229;-68
2021/12/13 13:20:13;;;;;;;1.20;1.10;;;;;;;8.67;96.71;99907.00;4974647;28;20034;-68
2021/12/13 13:22:43;;;;;;;1.98;1.85;;;;;;;8.57;96.70;99915.53;4973802;28;20042;-68
2021/12/13 13:25:18;;;;;;;1.02;1.00;;;;;;;8.35;97.40;99924.75;4956955;28;20373;-68
2021/12/13 13:27:44;;;;;;;0.85;0.85;;;;;;;8.31;98.53;99923.88;4974092;28;20046;-68
2021/12/13 13:30:16;;;;;;;1.05;1.05;;;;;;;8.34;97.21;99926.50;4973637;28;20033;-68
2021/12/13 13:32:42;;;;;;;1.05;1.00;;;;;;;8.41;96.95;99914.53;4974167;28;20026;-68
2021/12/13 13:35:08;;;;;;;1.23;1.13;;;;;;;8.43;96.36;99918.84;4970518;28;20027;-68
2021/12/13 13:37:40;;;;;;;1.48;1.40;;;;;;;8.39;96.84;99919.69;4957717;28;20023;-69
2021/12/13 13:40:19;;;;;;;1.10;0.88;;;;;;;8.50;96.11;99922.34;4958727;28;20488;-68
2021/12/13 13:42:53;;;;;;;0.95;0.95;;;;;;;8.35;95.12;99915.31;4954839;29;20057;-68
2021/12/13 13:45:26;;;;;;;5.07;2.22;;;;;;;8.23;96.11;99915.19;4954710;29;20031;-68
2021/12/13 13:47:56;;;;;;;1.80;1.63;;;;;;;8.06;97.01;99919.31;4954478;29;20027;-68
2021/12/13 13:50:27;;;;;;;0.85;0.77;;;;;;;7.89;98.04;99921.72;4954647;29;20481;-68
2021/12/13 13:53:06;;;;;;;1.25;1.00;;;;;;;7.91;98.49;99923.47;4954580;29;20090;-68
2021/12/13 13:55:38;;;;;;;3.85;2.22;;;;;;;7.89;99.11;99925.16;4954466;29;20489;-68
2021/12/13 13:58:07;;;;;;;4.93;2.63;;;;;;;7.87;98.47;99924.25;4954404;29;20035;-68
2021/12/13 14:00:38;;;;;;;4.45;1.48;;;;;;;7.71;99.40;99924.94;4954522;29;20042;-68
2021/12/13 14:03:04;;;;;;;3.55;3.22;;;;;;;7.70;99.48;99926.66;4954180;29;20039;-68
2021/12/13 14:05:35;;;;;;;1.00;1.00;;;;;;;7.78;100.00;99931.91;4962097;28;20033;-68
2021/12/13 14:08:01;;;;;;;1.40;1.38;;;;;;;7.67;99.55;99928.34;4955550;28;20525;-68
2021/12/13 14:10:27;;;;;;;0.82;0.82;;;;;;;7.68;100.00;99927.47;4955753;28;20027;-68
2021/12/13 14:13:04;;;;;;;2.13;1.13;;;;;;;7.58;100.00;99929.06;4954182;29;20094;-68
2021/12/13 14:15:33;;;;;;;1.27;1.23;;;;;;;7.47;100.00;99934.09;4936894;29;20023;-68
2021/12/13 14:18:23;;;;;;;1.00;1.00;;;;;;;7.54;100.00;99936.75;4954065;29;20019;-68
2021/12/13 14:20:53;;;;;;;0.70;0.70;;;;;;;7.44;100.00;99931.47;4954273;29;20157;-68
2021/12/13 14:23:37;;;;;;;1.35;1.30;;;;;;;7.44;100.00;99934.06;4954171;29;20092;-68
2021/12/13 14:26:17;;;;;;;1.00;0.90;;;;;;;7.58;100.00;99935.94;4953843;29;20031;-68
2021/12/13 14:28:56;;;;;;;3.03;2.75;;;;;;;7.43;100.00;99942.63;4954014;29;20057;-68
2021/12/13 14:31:24;;;;;;;0.85;0.85;;;;;;;7.52;100.00;99943.63;4954128;29;20027;-68
2021/12/13 14:34:06;;;;;;;0.77;0.73;;;;;;;7.49;100.00;99944.44;4953844;29;20087;-68
2021/12/13 14:36:42;;;;;;;1.58;1.45;;;;;;;7.40;100.00;99940.03;4961762;28;20581;-68
2021/12/13 14:39:07;;;;;;;2.30;2.08;;;;;;;7.37;100.00;99944.28;4961771;28;20027;-68
2021/12/13 14:41:38;;;;;;;2.38;1.63;;;;;;;7.30;100.00;99943.34;4953930;28;20034;-68
2021/12/13 14:44:08;;;;;;;3.97;2.08;;;;;;;7.34;100.00;99937.34;4953905;29;20035;-68
2021/12/13 14:46:48;;;;;;;1.17;1.17;;;;;;;7.31;100.00;99934.75;4953570;29;20031;-68
2021/12/13 14:49:16;;;;;;;;;;;;;;;7.31;100.00;99945.06;4954319;29;20400;-68
2021/12/13 14:51:49;;;;;;;2.30;1.45;;;;;;;7.28;100.00;99945.00;4953576;29;19914;-68
2021/12/13 14:54:18;;;;;;;1.30;1.10;;;;;;;7.12;100.00;99946.50;4953533;29;20037;-68
2021/12/13 14:56:49;;;;;;;1.40;1.30;;;;;;;7.12;100.00;99948.22;4953254;29;20560;-68
2021/12/13 14:59:14;;;;;;;2.17;1.98;;;;;;;7.14;100.00;99951.69;4953499;29;20031;-68
2021/12/13 15:01:42;;;;;;;0.85;0.85;;;;;;;7.09;100.00;99941.31;4953447;29;20627;-68
2021/12/13 15:04:11;;;;;;;2.80;1.35;;;;;;;7.12;100.00;99949.09;4953624;29;20030;-71
2021/12/13 15:06:49;;;;;;;1.80;1.70;;;;;;;7.16;100.00;99950.00;4961106;28;20023;-72
2021/12/13 15:09:22;;;;;;;1.10;1.10;;;;;;;7.17;100.00;99947.44;4961574;28;20034;-72
2021/12/13 15:12:03;;;;;;;1.38;1.27;;;;;;;7.14;100.00;99951.69;4953562;29;20031;-72
2021/12/13 15:14:32;;;;;;;2.22;1.27;;;;;;;7.14;100.00;99952.53;4953646;29;20090;-72
2021/12/13 15:17:09;;;;;;;1.63;1.52;;;;;;;7.15;100.00;99953.41;4953100;28;20027;-71
2021/12/13 15:19:36;;;;;;;7.43;1.38;;;;;;;7.18;100.00;99953.47;4953467;29;20040;-72
2021/12/13 15:22:05;;;;;;;1.40;1.30;;;;;;;7.28;100.00;99950.16;4953436;29;20023;-72
2021/12/13 15:24:32;;;;;;;1.17;1.08;;;;;;;7.16;100.00;99945.72;4953547;29;20489;-72
2021/12/13 15:27:05;;;;;;;2.08;1.95;;;;;;;7.20;100.00;99951.75;4953080;29;20050;-72
2021/12/13 15:29:34;;;;;;;1.23;1.13;;;;;;;7.18;100.00;99958.63;4953594;29;20074;-72
2021/12/13 15:32:06;;;;;;;0.88;0.88;;;;;;;7.13;100.00;99955.09;4953332;29;20027;-72
2021/12/13 15:34:37;;;;;;;1.00;0.98;;;;;;;7.22;100.00;99965.56;4955531;28;20058;-72
2021/12/13 15:37:17;;;;;;;2.95;1.58;;;;;;;7.24;100.00;99958.69;4957680;28;20027;-68
2021/12/13 15:39:55;;;;;;;0.70;0.70;;;;;;;7.03;100.00;99963.53;4958098;28;20027;-68
2021/12/13 15:42:21;;;;;;;1.75;0.98;;;;;;;6.98;100.00;99960.03;4972655;28;20033;-68
2021/12/13 15:44:47;;;;;;;0.98;0.98;;;;;;;6.97;100.00;99959.16;4972602;28;20018;-68
2021/12/13 15:47:12;;;;;;;1.40;1.30;;;;;;;6.92;100.00;99961.69;4972195;28;20411;-68
2021/12/13 15:49:38;;;;;;;1.95;1.00;;;;;;;6.87;100.00;99960.72;4972741;28;20062;-68
2021/12/13 15:52:17;;;;;;;0.85;0.82;;;;;;;6.83;100.00;99961.53;4973495;28;20672;-68
2021/12/13 15:54:47;;;;;;;2.20;1.52;;;;;;;6.76;100.00;99964.81;4976013;28;20102;-68
2021/12/13 15:57:26;;;;;;;3.17;2.63;;;;;;;6.73;100.00;99967.38;4975773;28;20030;-68
2021/12/13 15:59:55;;;;;;;1.42;1.10;;;;;;;6.83;100.00;99970.97;4975980;28;20026;-68
2021/12/13 16:02:27;;;;;;;1.35;1.30;;;;;;;6.93;100.00;99968.56;4975941;28;20030;-69
2021/12/13 16:05:04;;;;;;;1.63;1.52;;;;;;;6.82;100.00;99967.53;4971787;28;20035;-68
2021/12/13 16:07:29;;;;;;;1.95;1.48;;;;;;;6.88;100.00;99965.03;4959359;28;20027;-68
2021/12/13 16:10:10;;;;;;;1.45;1.35;;;;;;;6.90;100.00;99960.75;4961953;28;20023;-68
2021/12/13 16:12:39;;;;;;;1.75;1.65;;;;;;;6.76;100.00;99964.81;4956478;29;20102;-68
2021/12/13 16:15:15;;;;;;;2.13;1.95;;;;;;;6.79;100.00;99970.03;4956297;29;20027;-68
2021/12/13 16:17:43;;;;;;;2.47;2.28;;;;;;;6.74;100.00;99966.53;4956172;29;20035;-68
2021/12/13 16:20:15;;;;;;;1.38;1.27;;;;;;;6.73;100.00;99962.22;4956231;29;20031;-68
2021/12/13 16:22:43;;;;;;;1.63;1.52;;;;;;;6.75;100.00;99968.25;4956322;29;20122;-68
2021/12/13 16:25:15;;;;;;;8.93;5.03;;;;;;;6.79;100.00;99972.63;4955998;29;20027;-68